Time;durP1;ratioP1;P1;durP2;ratioP2;P2;SDS_P1;SDS_P2;PMS_P1;PMS_P2;Temp;Humidity;BMP_temperature;BMP_pressure;BME280_temperature;BME280_humidity;BME280_pressure;Samples;Min_cycle;Max_cycle;Signal;HPM_P1;HPM_P2
2024/03/24 00:01:02;;;;;;;16.08;2.28;;;14.80;96.70;;;;;;5046795;28;20135;-71
2024/03/24 00:03:32;;;;;;;18.00;3.08;;;14.90;96.70;;;;;;5066007;28;20497;-72
2024/03/24 00:06:00;;;;;;;14.70;2.67;;;14.80;96.70;;;;;;5051708;28;20045;-70
2024/03/24 00:08:31;;;;;;;14.57;2.90;;;14.90;96.70;;;;;;5038189;28;20068;-70
2024/03/24 00:11:01;;;;;;;12.82;2.72;;;14.90;96.70;;;;;;5057731;28;20097;-71
2024/03/24 00:13:31;;;;;;;12.38;2.85;;;14.90;96.70;;;;;;5041426;28;20051;-71
2024/03/24 00:15:59;;;;;;;11.07;2.47;;;14.90;96.70;;;;;;5054209;28;20044;-71
2024/03/24 00:18:27;;;;;;;15.10;2.88;;;14.90;96.70;;;;;;5052006;28;20044;-71
2024/03/24 00:20:55;;;;;;;16.23;3.22;;;14.80;96.70;;;;;;5049105;28;20044;-71
2024/03/24 00:23:25;;;;;;;10.90;2.22;;;14.80;96.70;;;;;;5033508;28;20571;-70
2024/03/24 00:25:56;;;;;;;15.23;2.35;;;14.90;96.70;;;;;;5033256;28;20059;-71
2024/03/24 00:28:23;;;;;;;15.65;3.15;;;14.80;96.70;;;;;;5049521;28;20053;-71
2024/03/24 00:30:54;;;;;;;16.65;3.65;;;14.80;96.70;;;;;;5085112;28;20066;-71
2024/03/24 00:33:22;;;;;;;11.30;2.78;;;14.80;96.70;;;;;;5069315;28;20175;-71
2024/03/24 00:35:50;;;;;;;16.38;2.95;;;14.80;96.70;;;;;;5049842;28;20044;-70
2024/03/24 00:38:18;;;;;;;10.75;2.53;;;14.80;96.70;;;;;;5068591;28;20059;-71
2024/03/24 00:40:48;;;;;;;14.20;3.08;;;14.80;96.70;;;;;;5068119;28;20048;-71
2024/03/24 00:43:18;;;;;;;16.42;3.33;;;14.80;96.70;;;;;;5038870;28;20052;-71
2024/03/24 00:45:49;;;;;;;14.93;2.88;;;14.80;96.70;;;;;;5046757;28;20833;-70
2024/03/24 00:48:17;;;;;;;16.75;3.33;;;14.80;96.70;;;;;;5067961;28;20450;-70
2024/03/24 00:50:46;;;;;;;12.15;3.03;;;14.70;96.70;;;;;;5048473;28;20192;-71
2024/03/24 00:53:13;;;;;;;12.70;3.30;;;14.70;96.70;;;;;;5068430;28;20078;-71
2024/03/24 00:55:41;;;;;;;19.02;3.33;;;14.70;96.70;;;;;;5050816;28;20040;-70
2024/03/24 00:58:08;;;;;;;19.85;3.50;;;14.70;96.70;;;;;;5049101;28;20128;-71
2024/03/24 01:00:38;;;;;;;13.63;2.42;;;14.70;96.70;;;;;;5051784;28;20390;-71
2024/03/24 01:03:07;;;;;;;16.33;3.67;;;14.70;96.70;;;;;;5067691;28;20128;-70
2024/03/24 01:05:35;;;;;;;14.02;3.53;;;14.60;96.70;;;;;;5067945;28;20036;-70
2024/03/24 01:08:02;;;;;;;18.02;3.20;;;14.70;96.70;;;;;;5066264;28;20105;-70
2024/03/24 01:10:37;;;;;;;15.18;3.00;;;14.70;96.70;;;;;;5068364;28;20134;-70
2024/03/24 01:13:05;;;;;;;19.50;3.33;;;14.70;96.70;;;;;;5051068;28;20086;-70
2024/03/24 01:15:33;;;;;;;15.90;3.70;;;14.70;96.70;;;;;;5050685;28;20066;-70
2024/03/24 01:18:04;;;;;;;15.35;2.83;;;14.70;96.70;;;;;;5046783;28;20059;-70
2024/03/24 01:20:32;;;;;;;18.88;4.22;;;14.70;96.70;;;;;;5063458;28;20744;-71
2024/03/24 01:23:00;;;;;;;14.35;3.00;;;14.70;96.70;;;;;;5050843;28;20130;-71
2024/03/24 01:25:29;;;;;;;14.57;2.92;;;14.60;96.70;;;;;;5068091;28;20164;-70
2024/03/24 01:27:56;;;;;;;12.48;2.70;;;14.60;96.70;;;;;;5057034;28;20147;-70
2024/03/24 01:30:24;;;;;;;18.00;3.40;;;14.60;96.70;;;;;;5030747;28;20398;-70
2024/03/24 01:32:52;;;;;;;12.07;3.47;;;14.60;96.70;;;;;;5030973;28;20136;-71
2024/03/24 01:35:21;;;;;;;9.00;2.80;;;14.70;96.70;;;;;;5029042;28;20051;-70
2024/03/24 01:37:51;;;;;;;17.48;3.60;;;14.70;96.70;;;;;;5030999;28;20067;-70
2024/03/24 01:40:19;;;;;;;13.20;3.17;;;14.70;96.70;;;;;;5047668;28;20058;-70
2024/03/24 01:42:47;;;;;;;14.88;2.80;;;14.70;96.70;;;;;;5047848;28;20588;-70
2024/03/24 01:45:16;;;;;;;19.08;3.05;;;14.70;96.70;;;;;;5047932;28;20131;-70
2024/03/24 01:47:44;;;;;;;14.75;3.28;;;14.70;96.70;;;;;;5029817;28;20056;-71
2024/03/24 01:50:14;;;;;;;20.52;3.47;;;14.70;96.70;;;;;;5026269;28;20093;-70
2024/03/24 01:52:45;;;;;;;13.27;2.63;;;14.70;96.70;;;;;;5031233;28;20049;-71
2024/03/24 01:55:15;;;;;;;10.15;2.67;;;14.70;96.70;;;;;;5047877;28;20048;-70
2024/03/24 01:57:42;;;;;;;18.55;3.83;;;14.70;96.70;;;;;;5028790;28;20045;-70
2024/03/24 02:00:12;;;;;;;15.98;3.03;;;14.70;96.70;;;;;;5030703;28;20052;-70
2024/03/24 02:02:40;;;;;;;12.57;3.05;;;14.70;96.70;;;;;;5044243;28;20048;-71
2024/03/24 02:05:08;;;;;;;11.60;2.65;;;14.70;96.70;;;;;;5055224;28;20422;-71
2024/03/24 02:07:36;;;;;;;13.73;2.80;;;14.60;96.70;;;;;;5047592;28;20041;-70
2024/03/24 02:10:08;;;;;;;18.05;3.22;;;14.50;96.70;;;;;;5043784;28;20183;-71
2024/03/24 02:12:36;;;;;;;9.98;2.58;;;14.50;96.70;;;;;;5047664;28;20134;-70
2024/03/24 02:15:05;;;;;;;13.25;3.03;;;14.50;96.70;;;;;;5046299;28;20056;-70
2024/03/24 02:17:35;;;;;;;16.00;3.15;;;14.40;96.70;;;;;;5030429;28;20054;-70
2024/03/24 02:20:06;;;;;;;14.90;3.40;;;14.40;96.70;;;;;;5046589;28;20044;-70
2024/03/24 02:22:39;;;;;;;13.38;3.10;;;14.30;96.70;;;;;;5046732;28;20036;-70
2024/03/24 02:25:10;;;;;;;17.57;4.07;;;14.30;96.70;;;;;;5030785;28;20037;-70
2024/03/24 02:27:37;;;;;;;17.90;2.95;;;14.30;96.70;;;;;;5038446;28;20108;-70
2024/03/24 02:30:10;;;;;;;16.42;3.60;;;14.30;96.70;;;;;;5050988;28;20086;-70
2024/03/24 02:32:43;;;;;;;16.70;3.25;;;14.30;96.70;;;;;;5033207;28;20049;-70
2024/03/24 02:35:15;;;;;;;21.05;3.97;;;14.20;96.70;;;;;;5065195;28;20120;-70
2024/03/24 02:37:44;;;;;;;14.57;2.88;;;14.20;96.70;;;;;;5050647;28;20044;-70
2024/03/24 02:40:13;;;;;;;21.02;4.57;;;14.20;96.70;;;;;;5051066;28;20147;-70
2024/03/24 02:42:40;;;;;;;20.42;3.47;;;14.20;96.70;;;;;;5051362;28;20048;-70
2024/03/24 02:45:10;;;;;;;21.05;3.60;;;14.20;96.70;;;;;;5034430;28;20068;-69
2024/03/24 02:47:38;;;;;;;22.45;3.80;;;14.20;96.70;;;;;;5044023;28;20175;-71
2024/03/24 02:50:07;;;;;;;18.08;3.60;;;14.20;96.70;;;;;;5048865;28;20048;-71
2024/03/24 02:52:35;;;;;;;15.23;3.60;;;14.10;96.70;;;;;;5049128;28;20076;-71
2024/03/24 02:55:05;;;;;;;19.25;3.45;;;14.10;96.70;;;;;;5050293;28;20044;-70
2024/03/24 02:57:33;;;;;;;17.02;3.92;;;14.20;96.70;;;;;;5050597;28;20684;-70
2024/03/24 03:00:02;;;;;;;17.48;3.63;;;14.20;96.70;;;;;;5035078;28;20468;-69
2024/03/24 03:02:30;;;;;;;23.63;4.60;;;14.10;96.70;;;;;;5031811;28;20056;-69
2024/03/24 03:04:57;;;;;;;16.38;3.50;;;14.10;96.70;;;;;;5050593;28;20102;-70
2024/03/24 03:07:27;;;;;;;25.90;4.30;;;14.10;96.70;;;;;;5069477;28;20048;-70
2024/03/24 03:09:57;;;;;;;17.10;3.83;;;14.00;96.70;;;;;;5031003;28;20139;-71
2024/03/24 03:12:28;;;;;;;17.60;3.53;;;14.00;96.70;;;;;;5050364;28;20068;-71
2024/03/24 03:14:56;;;;;;;23.45;3.47;;;13.90;96.70;;;;;;5050689;28;20637;-71
2024/03/24 03:17:25;;;;;;;20.55;4.00;;;13.90;96.70;;;;;;5032893;28;20102;-70
2024/03/24 03:19:52;;;;;;;17.33;4.18;;;13.90;96.70;;;;;;5050005;28;20079;-70
2024/03/24 03:22:20;;;;;;;17.40;3.63;;;13.90;96.70;;;;;;5049871;28;20050;-70
2024/03/24 03:24:47;;;;;;;13.88;3.47;;;13.90;96.70;;;;;;5060482;28;20147;-70
2024/03/24 03:27:16;;;;;;;18.25;3.28;;;13.90;96.70;;;;;;5053390;28;20836;-70
2024/03/24 03:29:47;;;;;;;19.13;4.50;;;13.90;96.70;;;;;;5065763;28;20123;-71
2024/03/24 03:32:17;;;;;;;11.50;2.67;;;13.90;96.70;;;;;;5032649;28;20048;-70
2024/03/24 03:34:45;;;;;;;17.48;3.58;;;13.90;96.70;;;;;;5049688;28;20106;-71
2024/03/24 03:37:12;;;;;;;14.25;2.80;;;13.90;96.70;;;;;;5049457;28;20052;-70
2024/03/24 03:39:42;;;;;;;19.50;3.72;;;13.90;96.70;;;;;;5049937;28;20401;-71
2024/03/24 03:42:10;;;;;;;15.98;3.00;;;13.90;96.70;;;;;;5033075;28;20048;-70
2024/03/24 03:44:38;;;;;;;17.85;2.95;;;13.90;96.70;;;;;;5032279;28;20912;-70
2024/03/24 03:47:08;;;;;;;18.30;3.00;;;13.90;96.70;;;;;;5032593;28;21143;-71
2024/03/24 03:49:35;;;;;;;14.48;2.65;;;13.90;96.70;;;;;;5048924;28;20066;-70
2024/03/24 03:52:02;;;;;;;12.57;3.03;;;13.80;96.70;;;;;;5032657;28;20612;-71
2024/03/24 03:54:31;;;;;;;13.75;2.85;;;13.80;96.70;;;;;;5046081;28;20064;-70
2024/03/24 03:57:01;;;;;;;15.20;3.40;;;13.80;96.70;;;;;;5041523;28;20055;-70
2024/03/24 03:59:31;;;;;;;13.77;3.08;;;13.80;96.70;;;;;;5026981;28;20934;-71
2024/03/24 04:01:58;;;;;;;11.32;2.65;;;13.80;96.70;;;;;;5031894;28;20044;-71
2024/03/24 04:04:29;;;;;;;15.27;3.10;;;13.80;96.70;;;;;;5033316;28;20506;-70
2024/03/24 04:06:57;;;;;;;13.55;3.13;;;13.80;96.70;;;;;;5029076;28;20083;-71
2024/03/24 04:09:27;;;;;;;14.05;2.63;;;13.70;96.70;;;;;;5064358;28;20041;-70
2024/03/24 04:11:55;;;;;;;17.73;2.95;;;13.70;96.70;;;;;;5048489;28;20049;-70
2024/03/24 04:14:23;;;;;;;11.20;2.40;;;13.70;96.70;;;;;;5032344;28;20881;-71
2024/03/24 04:16:53;;;;;;;12.45;3.30;;;13.70;96.70;;;;;;5031401;28;20045;-71
2024/03/24 04:19:23;;;;;;;11.68;2.13;;;13.70;96.70;;;;;;5065039;28;20064;-70
2024/03/24 04:21:52;;;;;;;15.02;2.70;;;13.60;96.70;;;;;;5048947;28;20055;-70
2024/03/24 04:24:21;;;;;;;15.30;2.47;;;13.70;96.70;;;;;;5049048;28;20044;-70
2024/03/24 04:26:49;;;;;;;10.98;2.20;;;13.70;96.70;;;;;;5053789;28;20425;-71
2024/03/24 04:29:16;;;;;;;13.55;2.55;;;13.70;96.70;;;;;;5055315;28;20055;-70
2024/03/24 04:31:44;;;;;;;17.35;2.90;;;13.80;96.70;;;;;;5073282;28;20035;-70
2024/03/24 04:34:11;;;;;;;13.18;2.50;;;13.90;96.70;;;;;;5052595;28;20504;-70
2024/03/24 04:36:41;;;;;;;11.80;3.10;;;13.90;96.70;;;;;;5055760;28;20043;-70
2024/03/24 04:39:12;;;;;;;9.15;2.13;;;14.00;96.70;;;;;;5054971;28;20486;-70
2024/03/24 04:41:40;;;;;;;15.32;3.13;;;14.00;96.70;;;;;;5055524;28;20508;-70
2024/03/24 04:44:08;;;;;;;13.27;3.08;;;14.00;96.70;;;;;;5055227;28;20047;-70
2024/03/24 04:46:37;;;;;;;17.05;3.30;;;14.00;96.70;;;;;;5070745;28;20124;-71
2024/03/24 04:49:09;;;;;;;15.45;3.83;;;13.90;96.70;;;;;;5070994;28;20112;-70
2024/03/24 04:51:39;;;;;;;15.98;3.15;;;14.00;96.70;;;;;;5058360;28;20135;-70
2024/03/24 04:54:08;;;;;;;14.63;2.97;;;14.00;96.70;;;;;;5088433;28;20039;-70
2024/03/24 04:56:38;;;;;;;14.98;3.65;;;13.90;96.70;;;;;;5076266;28;20039;-70
2024/03/24 04:59:06;;;;;;;10.65;2.10;;;13.80;96.70;;;;;;5072299;28;20054;-70
2024/03/24 05:01:37;;;;;;;14.23;3.05;;;13.80;96.70;;;;;;5070977;28;20075;-71
2024/03/24 05:04:09;;;;;;;18.13;3.13;;;13.80;96.70;;;;;;5055480;28;20085;-70
2024/03/24 05:06:37;;;;;;;17.15;2.90;;;13.80;96.70;;;;;;5071636;28;20587;-69
2024/03/24 05:09:04;;;;;;;12.68;2.78;;;13.80;96.70;;;;;;5071221;28;20042;-71
2024/03/24 05:11:34;;;;;;;14.73;3.28;;;13.70;96.70;;;;;;5055562;28;20058;-70
2024/03/24 05:14:06;;;;;;;12.70;3.92;;;13.70;96.70;;;;;;5067937;28;20085;-70
2024/03/24 05:16:33;;;;;;;18.98;3.58;;;13.70;96.70;;;;;;5070774;28;20063;-70
2024/03/24 05:19:06;;;;;;;16.02;3.10;;;13.70;96.70;;;;;;5053888;28;20139;-70
2024/03/24 05:21:34;;;;;;;16.45;3.08;;;13.70;96.70;;;;;;5070745;28;20048;-70
2024/03/24 05:24:01;;;;;;;13.27;2.47;;;13.70;96.70;;;;;;5070847;28;20044;-70
2024/03/24 05:26:30;;;;;;;14.40;2.75;;;13.70;96.70;;;;;;5066415;28;20078;-71
2024/03/24 05:29:01;;;;;;;16.88;3.13;;;13.80;96.70;;;;;;5054331;28;20051;-70
2024/03/24 05:31:32;;;;;;;15.85;3.08;;;13.80;96.70;;;;;;5071705;28;20658;-70
2024/03/24 05:34:01;;;;;;;13.73;2.90;;;13.80;96.70;;;;;;5070625;28;20047;-70
2024/03/24 05:36:29;;;;;;;11.18;2.58;;;13.90;96.70;;;;;;5085879;28;20082;-70
2024/03/24 05:38:58;;;;;;;11.15;3.20;;;14.00;96.70;;;;;;5087865;28;20480;-70
2024/03/24 05:41:26;;;;;;;13.23;3.40;;;14.00;96.70;;;;;;5069621;28;20811;-70
2024/03/24 05:43:53;;;;;;;13.05;3.17;;;14.00;96.70;;;;;;5053976;28;20475;-70
2024/03/24 05:46:22;;;;;;;13.85;3.30;;;14.10;96.70;;;;;;5049271;28;20066;-70
2024/03/24 05:48:53;;;;;;;16.63;3.45;;;14.10;96.70;;;;;;5070613;28;20505;-71
2024/03/24 05:51:25;;;;;;;14.55;3.63;;;14.10;96.70;;;;;;5071304;28;20047;-71
2024/03/24 05:53:54;;;;;;;21.88;3.78;;;14.10;96.70;;;;;;5049073;28;20055;-71
2024/03/24 05:56:25;;;;;;;10.38;3.45;;;14.10;96.70;;;;;;5053121;28;20508;-71
2024/03/24 05:58:53;;;;;;;14.02;3.67;;;14.10;96.70;;;;;;5071189;28;20084;-71
2024/03/24 06:01:20;;;;;;;15.07;4.15;;;14.00;96.70;;;;;;5052442;28;20044;-70
2024/03/24 06:03:48;;;;;;;14.82;4.18;;;14.00;96.70;;;;;;5074279;28;20139;-70
2024/03/24 06:06:18;;;;;;;17.42;4.15;;;13.90;96.70;;;;;;5074271;28;20067;-71
2024/03/24 06:08:47;;;;;;;16.95;3.95;;;13.90;96.70;;;;;;5061506;28;20805;-71
2024/03/24 06:11:15;;;;;;;18.13;4.15;;;13.90;96.70;;;;;;5074596;28;20047;-71
2024/03/24 06:13:43;;;;;;;16.50;4.10;;;13.90;96.70;;;;;;5074138;28;20108;-71
2024/03/24 06:16:13;;;;;;;14.25;3.70;;;13.90;96.70;;;;;;5058428;28;20035;-71
2024/03/24 06:18:40;;;;;;;13.35;3.88;;;13.90;96.70;;;;;;5074391;28;20463;-71
2024/03/24 06:21:08;;;;;;;13.43;4.07;;;13.90;96.70;;;;;;5057704;28;20047;-71
2024/03/24 06:23:39;;;;;;;20.10;4.03;;;13.90;96.70;;;;;;5091348;28;20048;-71
2024/03/24 06:26:07;;;;;;;15.57;3.20;;;13.90;96.70;;;;;;5058139;28;20047;-70
2024/03/24 06:28:35;;;;;;;14.50;2.38;;;13.80;96.70;;;;;;5048710;28;20198;-70
2024/03/24 06:31:05;;;;;;;10.35;2.38;;;13.80;96.70;;;;;;5067028;28;20047;-71
2024/03/24 06:33:33;;;;;;;16.20;2.70;;;13.90;96.70;;;;;;5038802;28;20057;-71
2024/03/24 06:36:03;;;;;;;11.90;2.67;;;13.90;96.70;;;;;;5051663;28;20048;-70
2024/03/24 06:38:32;;;;;;;12.02;2.35;;;14.00;96.70;;;;;;5034425;28;20795;-70
2024/03/24 06:41:05;;;;;;;16.40;3.83;;;14.10;96.70;;;;;;5066258;28;20123;-71
2024/03/24 06:43:42;;;;;;;15.48;2.25;;;14.10;96.70;;;;;;5044865;28;20075;-71
2024/03/24 06:46:10;;;;;;;13.18;2.40;;;14.20;96.70;;;;;;5034235;28;20504;-69
2024/03/24 06:48:39;;;;;;;10.63;2.20;;;14.30;96.70;;;;;;5067389;28;20049;-70
2024/03/24 06:51:06;;;;;;;11.27;2.47;;;14.30;96.70;;;;;;5042866;28;20082;-70
2024/03/24 06:53:35;;;;;;;18.38;2.78;;;14.30;96.70;;;;;;5037643;28;20060;-71
2024/03/24 06:56:07;;;;;;;14.38;2.45;;;14.40;96.70;;;;;;5051131;28;20041;-71
2024/03/24 06:58:37;;;;;;;14.48;2.05;;;14.40;96.70;;;;;;5058921;28;20101;-70
2024/03/24 07:01:08;;;;;;;14.82;2.90;;;14.50;96.70;;;;;;5050959;28;20620;-70
2024/03/24 07:03:35;;;;;;;12.38;2.58;;;14.50;96.70;;;;;;5050552;28;20141;-70
2024/03/24 07:06:04;;;;;;;9.15;2.17;;;14.60;96.70;;;;;;5034414;28;20861;-70
2024/03/24 07:08:32;;;;;;;11.63;2.05;;;14.70;96.70;;;;;;5067344;28;20064;-70
2024/03/24 07:11:01;;;;;;;14.35;2.88;;;14.80;96.70;;;;;;5049429;28;20469;-70
2024/03/24 07:13:30;;;;;;;15.95;2.50;;;14.80;96.70;;;;;;5066391;28;20056;-71
2024/03/24 07:15:58;;;;;;;11.75;2.33;;;14.80;96.70;;;;;;5066996;28;20046;-71
2024/03/24 07:18:26;;;;;;;15.93;2.38;;;14.90;96.70;;;;;;5066818;28;20051;-70
2024/03/24 07:20:59;;;;;;;14.43;2.63;;;15.00;96.70;;;;;;5046811;28;20164;-71
2024/03/24 07:23:27;;;;;;;15.93;3.15;;;15.00;96.70;;;;;;5066546;28;20102;-71
2024/03/24 07:25:55;;;;;;;17.10;3.60;;;15.10;96.70;;;;;;5066470;28;20687;-70
2024/03/24 07:28:23;;;;;;;13.13;2.85;;;15.10;96.70;;;;;;5059008;28;20135;-70
2024/03/24 07:30:53;;;;;;;13.90;2.70;;;15.20;96.70;;;;;;5036068;28;20521;-71
2024/03/24 07:33:24;;;;;;;12.52;2.40;;;15.20;96.70;;;;;;5031030;28;20068;-70
2024/03/24 07:35:52;;;;;;;14.63;4.03;;;15.30;96.70;;;;;;5037717;28;20133;-71
2024/03/24 07:38:21;;;;;;;13.38;3.05;;;15.30;96.70;;;;;;5049924;28;20137;-71
2024/03/24 07:40:49;;;;;;;7.85;2.25;;;15.30;96.70;;;;;;5048310;28;20053;-70
2024/03/24 07:43:19;;;;;;;16.17;3.38;;;15.30;96.70;;;;;;5058205;28;20539;-69
2024/03/24 07:45:47;;;;;;;17.15;2.78;;;15.30;96.70;;;;;;5040983;28;20045;-71
2024/03/24 07:48:17;;;;;;;12.70;4.07;;;15.30;96.70;;;;;;5057032;28;20044;-71
2024/03/24 07:50:46;;;;;;;19.05;2.80;;;15.30;96.70;;;;;;5047702;28;20127;-71
2024/03/24 07:53:13;;;;;;;9.88;2.58;;;15.30;96.70;;;;;;5040388;28;20054;-71
2024/03/24 07:55:43;;;;;;;18.95;3.20;;;15.30;96.70;;;;;;5033607;28;20094;-71
2024/03/24 07:58:12;;;;;;;14.95;2.50;;;15.30;96.70;;;;;;5047182;28;20040;-71
2024/03/24 08:00:40;;;;;;;10.82;2.35;;;15.30;96.70;;;;;;5069457;28;20585;-71
2024/03/24 08:03:11;;;;;;;14.35;2.50;;;15.40;96.70;;;;;;5031722;28;20049;-70
2024/03/24 08:05:41;;;;;;;13.95;2.40;;;15.50;96.70;;;;;;5045742;28;20079;-71
2024/03/24 08:08:08;;;;;;;17.30;3.42;;;15.50;96.70;;;;;;5049392;28;20040;-71
2024/03/24 08:10:36;;;;;;;14.48;2.75;;;15.50;96.70;;;;;;5079978;28;20052;-71
2024/03/24 08:13:04;;;;;;;12.00;1.92;;;15.50;96.70;;;;;;5040703;28;20053;-71
2024/03/24 08:15:34;;;;;;;11.50;2.03;;;15.50;96.70;;;;;;5049024;28;20094;-72
2024/03/24 08:18:01;;;;;;;12.93;2.55;;;15.50;96.70;;;;;;5032113;28;20078;-71
2024/03/24 08:20:29;;;;;;;12.30;2.50;;;15.40;96.70;;;;;;5047264;28;20086;-71
2024/03/24 08:22:59;;;;;;;9.18;2.03;;;15.40;96.70;;;;;;5046151;28;20058;-73
2024/03/24 08:25:27;;;;;;;11.60;2.25;;;15.40;96.70;;;;;;5048451;28;20044;-71
2024/03/24 08:27:57;;;;;;;8.52;2.00;;;15.40;96.70;;;;;;5036413;28;20507;-73
2024/03/24 08:30:26;;;;;;;14.10;2.38;;;15.40;96.70;;;;;;5049334;28;20048;-73
2024/03/24 08:32:55;;;;;;;11.75;2.30;;;15.50;96.70;;;;;;5039675;28;20092;-72
2024/03/24 08:35:23;;;;;;;9.45;2.53;;;15.70;96.70;;;;;;5036693;28;20162;-72
2024/03/24 08:37:53;;;;;;;11.55;2.47;;;15.80;96.70;;;;;;5044370;28;20076;-72
2024/03/24 08:40:22;;;;;;;11.73;2.40;;;16.00;96.70;;;;;;5022616;28;20059;-71
2024/03/24 08:42:49;;;;;;;10.05;1.83;;;15.90;96.70;;;;;;5047629;28;20045;-72
2024/03/24 08:45:21;;;;;;;12.20;2.22;;;15.90;96.70;;;;;;5031621;28;20423;-71
2024/03/24 08:47:48;;;;;;;10.35;1.77;;;15.90;96.70;;;;;;5031321;28;20040;-71
2024/03/24 08:50:16;;;;;;;11.30;2.60;;;15.90;96.70;;;;;;5031959;28;20072;-71
2024/03/24 08:52:44;;;;;;;15.55;2.83;;;16.00;96.70;;;;;;5030558;28;20072;-72
2024/03/24 08:55:11;;;;;;;9.70;2.08;;;16.10;96.70;;;;;;5047353;28;20044;-69
2024/03/24 08:57:41;;;;;;;12.50;2.45;;;16.10;96.70;;;;;;5040804;28;20110;-71
2024/03/24 09:00:09;;;;;;;16.95;3.25;;;16.20;96.70;;;;;;5030306;28;20772;-71
2024/03/24 09:02:37;;;;;;;17.23;3.60;;;16.10;96.70;;;;;;5046501;28;20052;-72
2024/03/24 09:05:06;;;;;;;13.05;2.20;;;16.10;96.70;;;;;;5047445;28;20156;-71
2024/03/24 09:07:34;;;;;;;8.27;1.83;;;16.20;96.70;;;;;;5027324;28;20071;-71
2024/03/24 09:10:01;;;;;;;10.43;2.05;;;16.10;96.70;;;;;;5047283;28;20521;-71
2024/03/24 09:12:29;;;;;;;13.77;2.90;;;16.10;96.70;;;;;;5039665;28;20544;-74
2024/03/24 09:14:59;;;;;;;9.25;2.10;;;16.10;96.70;;;;;;5039804;28;20072;-71
2024/03/24 09:17:27;;;;;;;9.52;1.95;;;16.00;96.70;;;;;;5046479;28;20654;-72
2024/03/24 09:19:54;;;;;;;12.70;2.78;;;16.10;96.70;;;;;;5027547;28;20598;-71
2024/03/24 09:22:22;;;;;;;10.93;2.50;;;16.20;96.70;;;;;;5043192;28;20048;-71
2024/03/24 09:24:49;;;;;;;14.10;2.47;;;16.20;96.70;;;;;;5023298;28;20059;-72
2024/03/24 09:27:17;;;;;;;10.43;2.17;;;16.20;96.70;;;;;;5050208;28;20052;-71
2024/03/24 09:29:48;;;;;;;10.73;2.60;;;16.10;96.70;;;;;;5067238;28;20047;-72
2024/03/24 09:32:19;;;;;;;11.15;2.47;;;16.10;96.70;;;;;;5049197;28;20079;-72
2024/03/24 09:34:48;;;;;;;13.13;2.83;;;16.30;96.70;;;;;;5074648;28;20055;-71
2024/03/24 09:37:16;;;;;;;11.60;1.85;;;16.40;96.70;;;;;;5050676;28;20420;-71
2024/03/24 09:39:43;;;;;;;14.77;2.50;;;16.40;96.70;;;;;;5050582;28;20077;-73
2024/03/24 09:42:15;;;;;;;15.07;2.72;;;16.60;96.70;;;;;;5064369;28;20044;-72
2024/03/24 09:44:43;;;;;;;10.70;2.08;;;16.50;96.70;;;;;;5050871;28;20052;-73
2024/03/24 09:47:11;;;;;;;9.93;2.05;;;16.60;96.70;;;;;;5083708;28;20040;-73
2024/03/24 09:49:44;;;;;;;18.58;4.00;;;16.60;96.70;;;;;;5050383;28;20043;-73
2024/03/24 09:52:14;;;;;;;13.73;2.88;;;16.70;96.70;;;;;;5062840;28;20040;-73
2024/03/24 09:54:42;;;;;;;15.00;2.35;;;16.70;96.70;;;;;;5067394;28;20048;-72
2024/03/24 09:57:11;;;;;;;14.48;2.10;;;16.80;96.70;;;;;;5048571;28;20083;-72
2024/03/24 09:59:39;;;;;;;11.45;2.35;;;16.90;96.70;;;;;;5067029;28;20501;-72
2024/03/24 10:02:09;;;;;;;11.93;2.55;;;16.80;96.70;;;;;;5082683;28;20035;-71
2024/03/24 10:04:37;;;;;;;10.73;2.20;;;16.80;96.70;;;;;;5064601;28;20055;-72
2024/03/24 10:07:07;;;;;;;13.77;2.50;;;16.90;96.70;;;;;;5066048;28;20048;-71
2024/03/24 10:09:36;;;;;;;13.52;2.20;;;17.00;96.70;;;;;;5050017;28;20044;-72
2024/03/24 10:12:13;;;;;;;12.05;2.80;;;17.00;96.70;;;;;;5067134;28;20682;-71
2024/03/24 10:14:40;;;;;;;9.32;2.08;;;17.00;96.70;;;;;;5065315;28;20063;-74
2024/03/24 10:17:14;;;;;;;15.68;3.13;;;17.10;96.70;;;;;;5045747;28;20044;-72
2024/03/24 10:19:46;;;;;;;10.25;2.38;;;17.20;96.70;;;;;;5079931;28;20606;-71
2024/03/24 10:22:16;;;;;;;10.57;2.03;;;17.30;96.70;;;;;;5064241;28;20504;-72
2024/03/24 10:24:44;;;;;;;15.10;2.75;;;17.20;96.70;;;;;;5045731;28;20504;-72
2024/03/24 10:27:12;;;;;;;16.50;2.60;;;17.30;96.70;;;;;;5046183;28;20052;-72
2024/03/24 10:29:41;;;;;;;7.30;2.00;;;17.40;96.70;;;;;;5050003;28;20060;-72
2024/03/24 10:32:10;;;;;;;10.38;1.88;;;17.40;96.70;;;;;;5049517;28;20412;-71
2024/03/24 10:34:40;;;;;;;10.82;2.33;;;17.50;96.70;;;;;;5066359;28;20449;-73
2024/03/24 10:37:09;;;;;;;9.55;2.22;;;17.60;96.70;;;;;;5050174;28;20409;-72
2024/03/24 10:39:39;;;;;;;11.00;2.55;;;17.60;96.70;;;;;;5067117;28;20040;-72
2024/03/24 10:42:09;;;;;;;8.10;2.08;;;17.50;96.70;;;;;;5050314;28;20044;-72
2024/03/24 10:44:37;;;;;;;12.35;2.55;;;17.70;96.70;;;;;;5049601;28;20040;-71
2024/03/24 10:47:05;;;;;;;9.32;2.42;;;17.60;96.70;;;;;;5049879;28;20063;-73
2024/03/24 10:49:34;;;;;;;9.27;2.75;;;17.60;96.70;;;;;;5042305;28;20044;-73
2024/03/24 10:52:05;;;;;;;11.07;1.98;;;17.70;96.70;;;;;;5053300;28;20556;-72
2024/03/24 10:54:33;;;;;;;13.98;2.80;;;17.80;96.70;;;;;;5064835;28;20122;-72
2024/03/24 10:57:05;;;;;;;9.50;2.42;;;17.90;96.70;;;;;;5051313;28;20036;-72
2024/03/24 10:59:33;;;;;;;10.60;2.17;;;18.00;96.70;;;;;;5053350;28;20523;-72
2024/03/24 11:02:01;;;;;;;7.15;2.00;;;18.00;96.70;;;;;;5066063;28;20109;-72
2024/03/24 11:04:31;;;;;;;10.32;2.70;;;18.00;96.70;;;;;;5069950;28;20439;-71
2024/03/24 11:07:01;;;;;;;8.35;1.98;;;18.10;96.70;;;;;;5070748;28;20707;-73
2024/03/24 11:09:31;;;;;;;9.60;2.13;;;18.10;96.70;;;;;;5089162;28;20039;-72
2024/03/24 11:11:59;;;;;;;9.65;2.42;;;18.00;96.70;;;;;;5069785;28;20428;-72
2024/03/24 11:14:29;;;;;;;11.88;2.20;;;18.00;96.70;;;;;;5053862;28;20405;-73
2024/03/24 11:17:01;;;;;;;9.50;2.70;;;18.00;96.70;;;;;;5067971;28;20558;-72
2024/03/24 11:19:30;;;;;;;13.38;3.17;;;18.10;96.70;;;;;;5053718;28;20052;-72
2024/03/24 11:21:58;;;;;;;7.53;2.13;;;18.10;96.70;;;;;;5053057;28;20412;-71
2024/03/24 11:24:27;;;;;;;9.40;3.28;;;18.10;96.70;;;;;;5069798;28;20131;-72
2024/03/24 11:26:59;;;;;;;12.48;3.25;;;18.20;96.70;;;;;;5056065;28;20060;-72
2024/03/24 11:30:03;;;;;;;12.13;3.33;;;18.30;96.70;;;;;;5073472;28;20078;-71
2024/03/24 11:32:49;;;;;;;9.05;2.45;;;18.20;96.70;;;;;;5056876;28;20054;-71
2024/03/24 11:35:20;;;;;;;11.73;2.23;;;18.40;96.70;;;;;;5065838;28;20044;-71
2024/03/24 11:37:53;;;;;;;9.00;2.58;;;18.40;96.70;;;;;;5056103;28;20035;-72
2024/03/24 11:40:22;;;;;;;10.52;2.13;;;18.40;96.70;;;;;;5073456;28;20047;-72
2024/03/24 11:42:52;;;;;;;12.20;2.65;;;18.30;96.70;;;;;;5056993;28;20054;-72
2024/03/24 11:45:42;;;;;;;9.73;2.22;;;18.40;96.70;;;;;;5057528;28;20128;-71
2024/03/24 11:48:31;;;;;;;10.15;2.75;;;18.60;96.70;;;;;;5049763;28;20147;-72
2024/03/24 11:51:02;;;;;;;9.48;2.55;;;18.60;96.70;;;;;;5056563;28;20050;-72
2024/03/24 11:53:34;;;;;;;8.05;2.33;;;18.50;96.70;;;;;;5089343;28;20079;-73
2024/03/24 11:56:01;;;;;;;9.68;2.42;;;18.40;96.70;;;;;;5056577;28;20159;-72
2024/03/24 11:58:29;;;;;;;13.60;4.30;;;18.70;96.70;;;;;;5072487;28;20043;-72
2024/03/24 12:01:03;;;;;;;8.02;2.17;;;18.90;96.70;;;;;;5056325;28;20077;-71
2024/03/24 12:03:35;;;;;;;11.18;2.30;;;18.90;96.70;;;;;;5063958;28;20562;-71
2024/03/24 12:06:08;;;;;;;9.02;2.00;;;19.00;96.70;;;;;;5057178;28;20154;-71
2024/03/24 12:08:36;;;;;;;11.05;2.40;;;19.00;96.70;;;;;;5072722;28;20664;-71
2024/03/24 12:11:08;;;;;;;11.15;2.53;;;19.20;96.70;;;;;;5057033;28;20584;-72
2024/03/24 12:13:36;;;;;;;7.13;1.90;;;18.90;96.70;;;;;;5072273;28;20047;-72
2024/03/24 12:16:07;;;;;;;10.10;1.98;;;18.90;96.70;;;;;;5072026;28;20047;-72
2024/03/24 12:18:35;;;;;;;13.77;2.63;;;18.80;96.70;;;;;;5055921;28;20043;-72
2024/03/24 12:21:07;;;;;;;8.65;2.40;;;18.80;96.70;;;;;;5054048;28;20082;-72
2024/03/24 12:23:36;;;;;;;12.40;2.45;;;18.90;96.70;;;;;;5072423;28;20052;-71
2024/03/24 12:26:04;;;;;;;12.68;2.70;;;19.00;96.70;;;;;;5071212;28;20039;-71
2024/03/24 12:28:33;;;;;;;9.88;2.05;;;18.90;96.70;;;;;;5044403;28;20067;-71
2024/03/24 12:31:01;;;;;;;8.48;2.20;;;19.00;96.70;;;;;;5048920;28;20079;-72
2024/03/24 12:33:32;;;;;;;9.90;2.00;;;18.80;96.70;;;;;;5048210;28;20076;-71
2024/03/24 12:36:02;;;;;;;9.27;2.00;;;18.80;96.70;;;;;;5048893;28;20040;-72
2024/03/24 12:38:34;;;;;;;10.35;2.75;;;18.80;96.70;;;;;;5048240;28;20052;-72
2024/03/24 12:41:03;;;;;;;9.18;2.13;;;18.80;96.70;;;;;;5032621;28;20052;-71
2024/03/24 12:43:35;;;;;;;8.85;2.08;;;19.00;96.70;;;;;;5048533;28;20048;-73
2024/03/24 12:46:03;;;;;;;9.10;2.03;;;18.80;96.70;;;;;;5048318;28;20044;-71
2024/03/24 12:48:32;;;;;;;9.77;2.28;;;18.80;96.70;;;;;;5022733;28;20514;-72